Timeline UpdatesTrip UpdatesNews PostsPvt PostsTravel TipsAdmin PostsConv PostsFollowed PostsChat RequestsBlog PostsPNR Posts

Disclaimer
Search
 
 
Thu Sep 18, 2014 21:14:34 ISTHomeTrainsΣChainsAtlasPNRForumGalleryNewsFAQTripsMembersLoginFeedback
No Recent News for this Train
Other Trains in the News **new
Latest...
.
Tue Jun 17, 2014 (04:25PM)
⇐ Return Journey: Train# 11124

11123/Barauni-Gwalior Mail

Time-Table HAS CHANGED.
Sep 01 (11:54PM)
Change Departure Station:
Change Arrival Station:
Post a Train Travel TipPost a Train Travel Tip **new
Post a Comment/Question/Picture/VideoPost a Comment/Question/Picture/Video
Pantry/Catering
✕ NO Pantry Car
✕ NO Catering
Loco/Rake Reversals
JHS/Jhansi Junction (7);
RSA - Rake Sharing
Rake/Coach Composition
.LOCO<-SLR-GN-GN-GN-A1-B1-B2-S1-S2-S3-S4-S5-S6-S7-S8-S9-S10-GN-GN-SLR.
Loco
Hauled by WDM 3A/3B from BJU-GWL
News    PNR    Forum    Time-Table    Availability    Fare Chart    Map    Arr/Dep History    Trips    Gallery    ΣChains    X/O    Timeline    
Travel Time: 3h 35m    6 halts    Distance: 146 km    Avg Speed: 40 km/hr
Type: Mail/Express
Zone: NCR/North Central
Departs @ 18:45
Platform# 9
SMTWTFS
Barauni Junction/BJU 
Arrives @ 22:20
Platform# 1
SMTWTFS
Sarai/SAI 

6 halts. 26 intermediate Stations between Barauni Junction and Sarai

Show ALL intermediate Stations  Show Old Time-Table

#CodeStation NameX/OArrivesAvgDepartsAvgHaltPFDay#KmSpeedElevZoneAddress
1BJUBarauni Junction (9)»  -18:45-910.05949mECRBegusarai, Bihar
2DSSDalsingh Sarai (2)  19:14 19:13-19:15-1 2m1127.346 ECR06278-221238, Bihar
3SPJSamastipur Junction (9)  19:45-19:55-10m--150.55455mECRSamastipur, Bihar
4KRBPKhudiram B Pusa (2)  20:09 20:10-20:10 20:12-1 2m--164.26752mECRDistt. Samastipur, Bihar
5DOLDholi (2)X  20:23 20:24-20:24 20:26-1 2m--177.524 ECRDistt. Muzaffarpur, Bihar
6MFPMuzaffarpur Junction (6)X  21:28-21:35-7m31102.76057mECRMuzaffarpur, Bihar
7BNRBhagwanpur (2)O  22:14 22:09-22:15 22:11-1 2m21136.86060mECRBhagwanpur, Bihar
8SAISarai (1)•X  22:25 22:20-22:26 22:25-1 5m11145.96454mECRVaishali, Bihar
9HJPHajipur Junction (3)X  22:44 22:35-22:45 22:40-1 5m11156.53355mECR06224-272230, Bihar
10SEESonpur Junction (4)  22:55 22:50-23:00 22:55-5m--1162.06656mECRSaran, Bihar
11DGADighwara (2)O  23:38 23:16-23:39 23:18-1 2m11185.13060mECR06158-281240, Bihar
12CPRChhapra Junction (6)  00:20-00:30-10m--2216.17958mNERDistt: Saran, Bihar
13DDADuraundha Junction (3)  01:03-01:04-1m--2259.55164mNERDistt: Siwan, Bihar
14SVSiwan Junction (4)  01:25-01:30-5m--2277.35870mNERSiwan, Bihar
15MWMairwa (2)  01:52-01:53-1m--2298.63973mNERMairwa, Bihar
16BTKBankata (2)  02:03-02:04-1m--2305.04473mNERDeoria, Uttar Pradesh
17BHTRBhatpar Rani (2)X  02:22 02:15-02:23 02:16-1m--2313.14173mNERDeoria, Uttar Pradesh
18BTTBhatni Junction (5)X  02:42 02:35-02:48 02:40-6 5m--2326.06273mNERDeoria, Uttar Pradesh
19DEOSDeoria Sadar (3)X  03:05 03:00-03:06 03:05-1 5m22346.84579mNERDeoria- 274001, Uttar Pradesh
20GBGauri Bazar (2)X  03:26 03:25-03:27 03:26-1m--2361.83682mNERDistrict Deoria- Pincode- 274202, Uttar Pradesh
21CCChauri Chaura (2)  03:43 03:42-03:44 03:43-1m--2371.52284mNERGorakhpur- PinCode:- 273201, Uttar Pradesh
22GKPGorakhpur Junction (10)  04:40 04:50-04:55 05:05-15m12395.94184mNERGorakhpur 273001, Uttar Pradesh
23SWASahjanwa (2)  05:21 05:30-05:22 05:32-1 2m--2413.05980mNERGorakhpur - 273209, Uttar Pradesh
24KLDKhalilabad (3)X  05:45 05:49-05:46 05:50-1m--2429.85186mNERKhalilabad- 272175, Uttar Pradesh
25BSTBasti (4)X  06:15 06:25-06:20 06:30-5m12459.38090mNERBasti 272001, Uttar Pradesh
26BVBabhnan (2)  06:44 06:53-06:45 06:55-1 2m--2490.158101mNERDistrict- Basti, Uttar Pradesh
27MURMankapur Junction (5)X  07:18 07:26-07:20 07:28-2m12519.962104mNERDistrict Gonda, Uttar Pradesh
28GDGonda Junction (3)X  07:55-08:10-15m12547.872110mNERGonda 271001, Uttar Pradesh
29CLJColonelGanj (2)X  08:35 08:34-08:36-1 2m12576.727108mNERGonda, Uttar Pradesh
30SUJSarju (2) new halt!!X  08:53-08:54-1m--2584.4110109mNERGonda, Uttar Pradesh
31BUWBurhwal Junction (3)XO  09:32 09:08-09:34 09:10-2m12610.017119mNERBarabanki, Uttar Pradesh
32BBKBarabanki Junction (4)X  10:45-10:47-2m22637.136122mNRPin-225001, Uttar Pradesh
33LKOLucknow Charbagh NR (9)  11:40 11:35-11:50-10 15m22665.649123mNR226004, Uttar Pradesh
34ONUnnao Junction (5)X  12:57-12:58-1m--2720.228129mNRUnnao, Uttar Pradesh
35CNBKanpur Central (10)X  13:35-13:45-10m--2737.617128mNCRKANPUR-208 001, Uttar Pradesh
36GOYGovindpuri Junction (2)  13:59 13:58-14:00-1 2m12741.444129mNCRKANPUR-208 006, Uttar Pradesh
37BZMBhimsen (1)  14:15 14:14-14:16-1 2m12751.657136mNCRKanpur, Uttar Pradesh
38PMNPamanX  14:32-14:33-1m--2766.876132mNCRNational Highway 2, Uttar Pradesh
39LLRLalpur (1)14:48 14:44-14:50 14:45-2 1m12780.883137mNCRKanpur Dehat, Uttar Pradesh
40PHNPokhrayan (2)X  14:56-14:57-1m12796.053133mNCRPukhrayan, Uttar Pradesh
41KPIKalpi  15:14-15:15-1m--2811.153114mNCRKalpi Orai(05162-252206), Uttar Pradesh
42ORAIOrai (3)  15:46 15:52-15:47 15:57-1 5m--2843.878139mNCROrai(05162-252206), Uttar Pradesh
43AITAit Junction (2)X  16:11 16:16-16:12 16:17-1m12868.564154mNCROrai(05162-252206), Uttar Pradesh
44MOTHMoth  16:53 16:49-16:54 16:50-1m--2902.571175mNCRJhansi, Uttar Pradesh
45CGNChirgaon  17:14 17:10-17:15 17:11-1m--2926.026192mNCRChirgaon, Uttar Pradesh
46JHSJhansi Junction (7)O↵¶18:25-18:40 18:50-15 25m32957.860259mNCRJhansi, Uttar Pradesh
47DAADatia (2)X  19:11 19:15-19:12 19:17-1 2m--2982.870264mNCRDatia, Madhya Pradesh
48DBADabra (3)X  19:36 19:43-19:37 19:45-1 2m--21013.234 NCRDabra(District-Gwalior), Madhya Pradesh
49GWLGwalior Junction (4)  21:00--421055.5-214mNCRGwalior, Madhya Pradesh
Scroll to Top
Scroll to Bottom